Time;durP1;ratioP1;P1;durP2;ratioP2;P2;SDS_P1;SDS_P2;PMS_P1;PMS_P2;Temp;Humidity;BMP_temperature;BMP_pressure;BME280_temperature;BME280_humidity;BME280_pressure;Samples;Min_cycle;Max_cycle;Signal;HPM_P1;HPM_P2
2023/10/01 00:01:40;;;;;;;11.10;9.27;;;;;;;11.65;100.00;102233.75;5008725;28;20021;-69
2023/10/01 00:04:06;;;;;;;9.10;8.18;;;;;;;11.65;100.00;102225.97;5008403;28;20018;-65
2023/10/01 00:06:35;;;;;;;10.60;9.52;;;;;;;11.62;100.00;102231.03;5008747;28;20025;-68
2023/10/01 00:09:02;;;;;;;8.73;7.63;;;;;;;11.59;100.00;102233.44;5009042;28;20026;-68
2023/10/01 00:11:28;;;;;;;12.82;9.32;;;;;;;11.58;100.00;102242.06;5008831;28;20077;-68
2023/10/01 00:13:53;;;;;;;9.68;7.85;;;;;;;11.59;100.00;102238.63;5009263;28;20176;-68
2023/10/01 00:16:19;;;;;;;10.85;8.70;;;;;;;11.61;100.00;102234.41;5009929;28;20060;-69
2023/10/01 00:18:47;;;;;;;9.90;8.38;;;;;;;11.61;100.00;102240.50;5008731;28;20572;-68
2023/10/01 00:21:12;;;;;;;12.18;8.73;;;;;;;11.64;100.00;102240.66;5007969;28;20378;-68
2023/10/01 00:23:37;;;;;;;10.25;8.60;;;;;;;11.64;100.00;102234.56;5008788;28;20033;-66
2023/10/01 00:26:03;;;;;;;11.77;9.38;;;;;;;11.63;100.00;102244.06;5009086;28;20316;-68
2023/10/01 00:28:28;;;;;;;11.73;10.52;;;;;;;11.65;100.00;102244.16;5008338;28;20026;-69
2023/10/01 00:30:53;;;;;;;11.38;9.93;;;;;;;11.66;100.00;102248.50;5008660;28;20022;-69
2023/10/01 00:33:18;;;;;;;11.30;9.95;;;;;;;11.66;100.00;102245.91;5008493;28;20018;-68
2023/10/01 00:35:44;;;;;;;12.75;10.98;;;;;;;11.69;100.00;102240.91;5008640;28;20026;-68
2023/10/01 00:38:10;;;;;;;12.48;10.35;;;;;;;11.70;100.00;102228.78;5007982;28;20022;-69
2023/10/01 00:40:36;;;;;;;11.10;9.82;;;;;;;11.70;100.00;102234.88;5008089;28;20902;-68
2023/10/01 00:43:03;;;;;;;12.25;10.57;;;;;;;11.69;100.00;102227.91;5008722;28;20096;-69
2023/10/01 00:45:30;;;;;;;15.40;11.00;;;;;;;11.69;100.00;102235.72;5006131;28;20112;-68
2023/10/01 00:47:57;;;;;;;13.60;11.60;;;;;;;11.70;100.00;102228.78;5008754;28;20064;-67
2023/10/01 00:50:23;;;;;;;11.05;9.70;;;;;;;11.71;100.00;102225.38;5007293;28;20528;-68
2023/10/01 00:52:49;;;;;;;12.23;10.38;;;;;;;11.69;100.00;102222.72;5007522;28;20112;-68
2023/10/01 00:55:16;;;;;;;11.93;10.50;;;;;;;11.70;100.00;102223.59;5008414;28;20040;-67
2023/10/01 00:57:42;;;;;;;13.90;10.65;;;;;;;11.69;100.00;102209.75;5007926;28;20025;-68
2023/10/01 01:00:09;;;;;;;12.88;10.20;;;;;;;11.66;100.00;102219.94;5008344;28;20033;-69
2023/10/01 01:02:38;;;;;;;11.52;9.90;;;;;;;11.63;100.00;102215.50;5008505;28;20179;-68
2023/10/01 01:05:19;;;;;;;12.70;9.65;;;;;;;11.62;100.00;102212.84;5008986;28;20026;-68
2023/10/01 01:07:47;;;;;;;10.77;9.13;;;;;;;11.58;100.00;102198.81;5008667;28;20389;-68
2023/10/01 01:10:18;;;;;;;12.40;8.45;;;;;;;11.56;100.00;102199.53;5008023;28;20083;-65
2023/10/01 01:12:45;;;;;;;9.15;7.93;;;;;;;11.53;100.00;102195.97;5009528;28;20030;-68
2023/10/01 01:15:13;;;;;;;9.52;7.38;;;;;;;11.52;100.00;102194.22;5012237;28;20028;-69
2023/10/01 01:17:41;;;;;;;11.70;8.07;;;;;;;11.51;100.00;102192.41;5011920;28;20427;-67
2023/10/01 01:20:10;;;;;;;10.32;7.70;;;;;;;11.50;100.00;102184.53;5010631;28;20096;-69
2023/10/01 01:22:39;;;;;;;9.93;7.22;;;;;;;11.49;100.00;102188.88;5011718;28;20101;-69
2023/10/01 01:25:10;;;;;;;11.82;7.22;;;;;;;11.50;100.00;102185.44;4999845;28;20024;-68
2023/10/01 01:27:40;;;;;;;10.98;6.88;;;;;;;11.47;100.00;102192.19;5011659;28;20027;-68
2023/10/01 01:30:08;;;;;;;8.32;7.18;;;;;;;11.47;100.00;102192.19;5011448;28;20096;-68
2023/10/01 01:32:36;;;;;;;9.43;7.53;;;;;;;11.45;100.00;102189.53;5012284;28;20025;-67
2023/10/01 01:35:02;;;;;;;8.43;6.88;;;;;;;11.45;100.00;102192.13;5012472;28;20026;-68
2023/10/01 01:37:46;;;;;;;9.82;7.28;;;;;;;11.47;100.00;102189.59;5012060;28;20440;-69
2023/10/01 01:40:24;;;;;;;11.32;7.47;;;;;;;11.47;100.00;102182.72;5011481;28;20042;-69
2023/10/01 01:43:15;;;;;;;9.85;6.43;;;;;;;11.47;100.00;102177.50;5010694;28;20065;-68
2023/10/01 01:45:43;;;;;;;11.63;7.28;;;;;;;11.49;100.00;102183.69;5012870;28;20043;-69
2023/10/01 01:48:21;;;;;;;11.68;7.15;;;;;;;11.50;100.00;102175.06;5030210;28;20037;-68
2023/10/01 01:50:47;;;;;;;11.82;6.75;;;;;;;11.51;100.00;102175.97;5029632;28;20075;-69
2023/10/01 01:53:13;;;;;;;10.73;7.40;;;;;;;11.53;100.00;102175.22;5030279;28;20028;-69
2023/10/01 01:55:38;;;;;;;10.27;7.43;;;;;;;11.55;100.00;102177.88;5029981;28;20033;-68
2023/10/01 01:58:10;;;;;;;8.70;6.60;;;;;;;11.58;100.00;102177.16;5030549;28;20026;-68
2023/10/01 02:00:38;;;;;;;9.25;6.82;;;;;;;11.59;100.00;102176.31;5010742;28;20112;-68
2023/10/01 02:03:14;;;;;;;9.50;7.13;;;;;;;11.58;100.00;102177.16;5023141;28;20493;-68
2023/10/01 02:05:41;;;;;;;8.05;6.57;;;;;;;11.55;100.00;102170.09;5005247;28;20395;-65
2023/10/01 02:08:09;;;;;;;9.32;6.93;;;;;;;11.55;100.00;102174.41;5028951;28;20029;-69
2023/10/01 02:10:44;;;;;;;8.13;6.97;;;;;;;11.55;100.00;102171.81;5030052;28;20104;-69
2023/10/01 02:13:13;;;;;;;9.90;7.38;;;;;;;11.54;100.00;102165.72;5029249;28;20047;-68
2023/10/01 02:15:39;;;;;;;10.73;7.80;;;;;;;11.53;100.00;102174.34;5028984;28;20029;-69
2023/10/01 02:18:08;;;;;;;10.50;7.78;;;;;;;11.52;100.00;102163.06;5028000;28;20488;-69
2023/10/01 02:20:34;;;;;;;11.00;7.47;;;;;;;11.47;100.00;102156.75;5028988;28;20055;-67
2023/10/01 02:23:02;;;;;;;9.63;7.10;;;;;;;11.44;100.00;102151.38;5026761;28;20600;-66
2023/10/01 02:25:37;;;;;;;10.30;7.97;;;;;;;11.45;100.00;102150.59;5028902;28;20264;-68
2023/10/01 02:28:11;;;;;;;10.50;7.70;;;;;;;11.43;100.00;102151.31;5027242;28;20550;-65
2023/10/01 02:30:36;;;;;;;8.50;7.05;;;;;;;11.43;100.00;102148.72;5028987;28;20545;-68
2023/10/01 02:33:19;;;;;;;12.00;7.80;;;;;;;11.44;100.00;102153.97;5026257;28;20040;-69
2023/10/01 02:35:49;;;;;;;11.30;7.93;;;;;;;11.45;100.00;102150.59;5026945;28;20466;-68
2023/10/01 02:41:02;;;;;;;10.68;7.50;;;;;;;11.50;100.00;102149.09;5026517;28;20076;-65
2023/10/01 02:43:35;;;;;;;9.40;7.10;;;;;;;11.47;100.00;102158.44;5016827;28;20058;-68
2023/10/01 02:46:07;;;;;;;8.68;6.15;;;;;;;11.44;100.00;102148.78;5009342;28;20490;-68
2023/10/01 02:48:34;;;;;;;9.85;6.40;;;;;;;11.44;100.00;102159.16;5010360;28;20482;-68
2023/10/01 02:51:14;;;;;;;8.50;6.70;;;;;;;11.43;100.00;102156.50;5009829;28;20017;-66
2023/10/01 02:54:04;;;;;;;8.65;7.05;;;;;;;11.40;100.00;102163.31;5009872;28;20554;-65
2023/10/01 02:56:52;;;;;;;9.38;7.38;;;;;;;11.38;100.00;102169.25;5009079;28;20797;-68
2023/10/01 02:59:18;;;;;;;9.68;7.70;;;;;;;11.34;100.00;102167.31;5009743;28;20032;-68
2023/10/01 03:01:46;;;;;;;10.15;7.45;;;;;;;11.32;100.00;102161.16;5021919;28;20033;-65
2023/10/01 03:04:15;;;;;;;9.80;6.57;;;;;;;11.28;100.00;102167.91;5017891;28;20526;-69
2023/10/01 03:06:52;;;;;;;10.02;7.50;;;;;;;11.26;100.00;102170.41;5028734;28;20485;-68
2023/10/01 03:09:33;;;;;;;10.38;8.13;;;;;;;11.22;100.00;102165.91;5018729;28;20088;-68
2023/10/01 03:14:59;;;;;;;9.15;6.53;;;;;;;11.17;100.00;102157.00;5028282;28;20092;-68
2023/10/01 03:17:27;;;;;;;9.15;6.70;;;;;;;11.13;100.00;102153.38;5028778;28;20032;-69
2023/10/01 03:19:53;;;;;;;11.10;7.05;;;;;;;11.11;100.00;102154.09;5027458;28;20025;-68
2023/10/01 03:22:23;;;;;;;7.72;6.50;;;;;;;11.08;100.00;102151.34;5028249;28;20035;-69
2023/10/01 03:24:51;;;;;;;8.93;6.95;;;;;;;11.05;100.00;102149.47;5027641;28;20029;-67
2023/10/01 03:27:20;;;;;;;10.95;7.03;;;;;;;11.05;100.00;102155.56;5026767;28;20064;-68
2023/10/01 03:29:49;;;;;;;10.80;7.20;;;;;;;11.07;100.00;102154.72;5026942;28;20030;-68
2023/10/01 03:32:27;;;;;;;12.77;7.32;;;;;;;11.09;100.00;102151.41;5028177;28;20021;-68
2023/10/01 03:34:53;;;;;;;12.60;7.47;;;;;;;11.13;100.00;102160.25;5004181;28;20025;-68
2023/10/01 03:37:19;;;;;;;10.20;7.78;;;;;;;11.15;100.00;102156.03;5024849;28;20026;-67
2023/10/01 03:39:50;;;;;;;9.40;7.35;;;;;;;11.14;100.00;102149.94;5027714;28;20029;-68
2023/10/01 03:42:17;;;;;;;9.68;6.70;;;;;;;11.15;100.00;102145.66;5024596;28;20037;-69
2023/10/01 03:45:00;;;;;;;9.00;6.95;;;;;;;11.16;100.00;102137.94;5016398;28;20039;-68
2023/10/01 03:47:27;;;;;;;9.05;6.97;;;;;;;11.16;100.00;102142.22;5011687;28;20474;-68
2023/10/01 03:49:57;;;;;;;8.20;6.53;;;;;;;11.14;100.00;102143.84;5008622;28;20033;-68
2023/10/01 03:52:29;;;;;;;8.38;7.50;;;;;;;11.16;100.00;102142.22;5011949;28;20014;-68
2023/10/01 03:57:24;;;;;;;8.85;6.18;;;;;;;11.17;100.00;102144.03;5022318;28;20034;-68
2023/10/01 03:59:53;;;;;;;11.63;7.47;;;;;;;11.17;100.00;102146.63;5008455;28;20026;-65
2023/10/01 04:02:42;;;;;;;11.40;6.75;;;;;;;11.17;100.00;102138.84;5008001;28;20026;-67
2023/10/01 04:08:08;;;;;;;10.00;6.20;;;;;;;11.19;100.00;102147.56;5026886;28;20397;-67
2023/10/01 04:10:35;;;;;;;9.50;6.83;;;;;;;11.16;100.00;102140.53;4995911;28;20025;-68
2023/10/01 04:13:12;;;;;;;10.48;6.40;;;;;;;11.17;100.00;102138.84;5008231;28;20049;-68
2023/10/01 04:15:41;;;;;;;10.35;6.57;;;;;;;11.20;100.00;102141.59;5027845;28;20030;-67
2023/10/01 04:21:17;;;;;;;9.18;5.90;;;;;;;11.22;100.00;102142.56;5027847;28;20065;-68
2023/10/01 04:23:40;;;;;;;8.65;6.30;;;;;;;11.23;100.00;102143.41;5027970;28;20452;-68
2023/10/01 04:26:07;;;;;;;8.70;6.05;;;;;;;11.24;100.00;102148.69;5026883;28;20076;-67
2023/10/01 04:28:37;;;;;;;9.45;6.65;;;;;;;11.25;100.00;102142.69;5019651;28;20057;-66
2023/10/01 04:31:09;;;;;;;12.93;7.30;;;;;;;11.25;100.00;102147.00;5020760;28;20053;-69
2023/10/01 04:33:42;;;;;;;10.38;7.40;;;;;;;11.25;100.00;102145.28;5008545;28;20037;-69
2023/10/01 04:36:10;;;;;;;9.85;7.38;;;;;;;11.26;100.00;102144.47;5020640;28;20026;-69
2023/10/01 04:38:37;;;;;;;9.82;7.15;;;;;;;11.25;100.00;102142.69;5008314;28;20084;-69
2023/10/01 04:41:07;;;;;;;15.63;8.05;;;;;;;11.24;100.00;102138.31;5007791;28;20129;-67
2023/10/01 04:43:35;;;;;;;9.73;7.18;;;;;;;11.27;100.00;102135.00;5008439;28;20022;-68
2023/10/01 04:46:08;;;;;;;10.25;7.13;;;;;;;11.27;100.00;102129.78;5006848;28;20488;-68
2023/10/01 04:48:36;;;;;;;10.27;6.45;;;;;;;11.27;100.00;102133.28;5012022;28;20037;-68
2023/10/01 04:51:07;;;;;;;9.55;6.57;;;;;;;11.26;100.00;102134.09;5024734;28;20040;-68
2023/10/01 04:53:33;;;;;;;9.00;6.60;;;;;;;11.26;100.00;102136.69;5024140;28;20017;-69
2023/10/01 04:56:01;;;;;;;8.32;6.15;;;;;;;11.25;100.00;102136.63;5011606;28;20513;-68
2023/10/01 04:58:32;;;;;;;10.75;6.68;;;;;;;11.25;100.00;102147.88;5012450;28;20026;-69
2023/10/01 05:00:58;;;;;;;9.98;6.30;;;;;;;11.28;100.00;102145.44;5012076;28;20112;-68
2023/10/01 05:03:40;;;;;;;9.52;6.45;;;;;;;11.28;100.00;102142.84;5016479;28;20037;-65
2023/10/01 05:06:13;;;;;;;10.15;6.63;;;;;;;11.28;100.00;102142.84;5016524;28;20034;-67
2023/10/01 05:08:40;;;;;;;9.98;6.95;;;;;;;11.30;100.00;102150.69;5011831;28;20087;-68
2023/10/01 05:11:12;;;;;;;10.63;7.32;;;;;;;11.30;100.00;102155.91;5010894;28;20052;-68
2023/10/01 05:13:43;;;;;;;12.77;7.75;;;;;;;11.28;100.00;102150.63;5007900;28;20033;-67
2023/10/01 05:16:12;;;;;;;12.45;6.25;;;;;;;11.26;100.00;102144.47;5008262;28;20030;-68
2023/10/01 05:18:38;;;;;;;10.55;6.05;;;;;;;11.26;100.00;102148.78;5008039;28;20053;-66
2023/10/01 05:21:09;;;;;;;10.10;6.72;;;;;;;11.25;100.00;102141.81;5008784;28;20110;-68
2023/10/01 05:23:36;;;;;;;;;;;;;;;11.27;100.00;102141.06;5008117;28;20072;-68
2023/10/01 05:26:03;;;;;;;12.00;6.97;;;;;;;11.28;100.00;102141.94;5008667;28;19920;-68
2023/10/01 05:28:36;;;;;;;11.35;7.18;;;;;;;11.29;100.00;102159.31;5008352;28;20033;-68
2023/10/01 05:31:07;;;;;;;7.97;6.25;;;;;;;11.28;100.00;102158.41;5006920;28;20253;-68
2023/10/01 05:33:33;;;;;;;13.30;6.43;;;;;;;11.28;100.00;102150.63;5006003;28;20030;-68
2023/10/01 05:36:04;;;;;;;9.95;6.95;;;;;;;11.27;100.00;102156.66;5006050;28;20467;-67
2023/10/01 05:38:33;;;;;;;11.00;7.28;;;;;;;11.26;100.00;102160.03;5000696;28;20381;-68
2023/10/01 05:41:03;;;;;;;11.57;7.38;;;;;;;11.27;100.00;102160.94;5005960;28;20042;-68
2023/10/01 05:43:35;;;;;;;8.90;6.47;;;;;;;11.27;100.00;102163.53;5006587;28;20026;-68
2023/10/01 05:46:01;;;;;;;8.63;6.43;;;;;;;11.28;100.00;102166.19;5007714;28;20101;-68
2023/10/01 05:48:30;;;;;;;9.90;6.65;;;;;;;11.27;100.00;102177.41;5007498;28;20030;-67
2023/10/01 05:50:58;;;;;;;12.43;6.63;;;;;;;11.29;100.00;102178.38;5007752;28;20022;-66
2023/10/01 05:53:24;;;;;;;13.18;6.25;;;;;;;11.29;100.00;102169.69;5008024;28;20017;-69
2023/10/01 05:55:50;;;;;;;10.15;6.35;;;;;;;11.28;100.00;102173.09;5008720;28;20048;-67
2023/10/01 05:58:18;;;;;;;9.48;6.05;;;;;;;11.25;100.00;102158.28;5007278;28;20529;-68
2023/10/01 06:00:45;;;;;;;12.27;6.43;;;;;;;11.23;100.00;102154.69;5006232;28;20041;-69
2023/10/01 06:03:15;;;;;;;11.07;6.75;;;;;;;11.25;100.00;102159.97;5007318;28;20028;-69
2023/10/01 06:05:50;;;;;;;11.35;6.43;;;;;;;11.26;100.00;102154.84;5005719;28;20053;-68
2023/10/01 06:08:24;;;;;;;10.13;6.70;;;;;;;11.30;100.00;102153.28;5007439;28;20477;-67
2023/10/01 06:11:07;;;;;;;10.55;6.05;;;;;;;11.31;100.00;102155.09;5007788;28;20060;-67
2023/10/01 06:13:38;;;;;;;11.13;7.10;;;;;;;11.36;100.00;102168.28;5006935;28;20029;-68
2023/10/01 06:16:15;;;;;;;10.18;6.78;;;;;;;11.38;100.00;102167.56;5007771;28;20030;-68
2023/10/01 06:18:49;;;;;;;11.32;7.38;;;;;;;11.42;100.00;102171.22;5007289;28;20030;-68
2023/10/01 06:21:23;;;;;;;11.43;7.00;;;;;;;11.44;100.00;102156.56;5007254;28;20022;-68
2023/10/01 06:23:52;;;;;;;8.57;6.57;;;;;;;11.48;100.00;102165.41;4999688;28;20088;-67
2023/10/01 06:26:42;;;;;;;11.25;7.10;;;;;;;11.52;100.00;102163.06;5009469;28;20018;-67
2023/10/01 06:29:08;;;;;;;8.48;6.22;;;;;;;11.57;100.00;102171.06;5009985;28;20076;-68
2023/10/01 06:32:00;;;;;;;11.68;7.25;;;;;;;11.60;100.00;102175.53;5009708;28;20036;-69
2023/10/01 06:34:31;;;;;;;10.43;6.57;;;;;;;11.67;100.00;102171.50;5010019;28;20028;-67
2023/10/01 06:36:58;;;;;;;10.52;6.32;;;;;;;11.69;100.00;102160.41;4997893;28;20132;-69
2023/10/01 06:39:25;;;;;;;7.63;6.32;;;;;;;11.75;100.00;102160.69;5010694;28;20382;-69
2023/10/01 06:41:53;;;;;;;7.95;6.22;;;;;;;11.80;100.00;102168.69;5009930;28;20046;-69
2023/10/01 06:44:19;;;;;;;9.60;6.63;;;;;;;11.85;100.00;102172.41;5010083;28;20152;-68
2023/10/01 06:46:47;;;;;;;10.07;6.43;;;;;;;11.92;100.00;102167.50;5009945;28;20112;-68
2023/10/01 06:49:12;;;;;;;12.02;7.20;;;;;;;11.96;100.00;102159.06;5009651;28;20022;-68
2023/10/01 06:51:43;;;;;;;10.88;7.28;;;;;;;11.99;100.00;102160.09;5010184;28;20420;-68
2023/10/01 06:54:10;;;;;;;8.05;6.50;;;;;;;12.05;100.00;102156.91;5010134;28;20468;-69
2023/10/01 06:56:37;;;;;;;10.70;7.03;;;;;;;12.09;100.00;102150.09;5009933;28;20022;-68
2023/10/01 07:01:49;;;;;;;12.02;6.03;;;;;;;12.17;100.00;102159.19;5010392;28;20386;-68
2023/10/01 07:04:19;;;;;;;11.15;6.45;;;;;;;12.22;100.00;102151.59;4998678;28;20065;-69
2023/10/01 07:06:48;;;;;;;10.98;6.43;;;;;;;12.27;100.00;102154.44;5021202;28;20048;-68
2023/10/01 07:09:32;;;;;;;12.40;7.18;;;;;;;12.32;100.00;102150.34;5009779;28;20049;-69
2023/10/01 07:11:59;;;;;;;11.00;7.13;;;;;;;12.38;100.00;102148.00;5008691;28;20046;-69
2023/10/01 07:14:38;;;;;;;11.20;6.32;;;;;;;12.44;100.00;102158.69;5021562;28;20022;-69
2023/10/01 07:17:14;;;;;;;11.70;6.90;;;;;;;12.52;100.00;102156.41;5005443;28;20112;-69
2023/10/01 07:19:42;;;;;;;8.50;5.68;;;;;;;12.59;100.00;102152.41;5028076;28;20025;-68
2023/10/01 07:22:14;;;;;;;11.60;6.35;;;;;;;12.64;100.00;102156.09;5019761;28;20033;-68
2023/10/01 07:24:43;;;;;;;11.38;6.65;;;;;;;12.78;100.00;102159.31;5008766;28;20072;-68
2023/10/01 07:27:11;;;;;;;10.93;6.80;;;;;;;13.32;100.00;102157.22;5009276;28;20381;-66
2023/10/01 07:29:43;;;;;;;9.02;6.00;;;;;;;14.12;100.00;102157.78;5007554;28;20029;-69
2023/10/01 07:32:13;;;;;;;7.13;5.35;;;;;;;14.70;100.00;102163.38;5008904;28;20635;-66
2023/10/01 07:34:39;;;;;;;10.07;6.32;;;;;;;15.30;100.00;102171.53;5013898;28;20428;-69
2023/10/01 07:37:07;;;;;;;8.73;5.32;;;;;;;15.38;100.00;102176.13;5010993;28;20105;-69
2023/10/01 07:39:36;;;;;;;10.18;5.70;;;;;;;15.75;100.00;102179.94;5021829;28;20028;-68
2023/10/01 07:42:04;;;;;;;10.70;5.82;;;;;;;16.13;100.00;102173.28;5020421;28;20128;-69
2023/10/01 07:44:31;;;;;;;9.30;5.93;;;;;;;16.38;100.00;102176.63;5013952;28;20352;-68
2023/10/01 07:46:56;;;;;;;10.68;5.97;;;;;;;16.80;100.00;102178.66;5014604;28;20109;-69
2023/10/01 07:49:22;;;;;;;11.40;6.60;;;;;;;17.17;100.00;102183.16;5007653;28;20164;-69
2023/10/01 07:51:50;;;;;;;9.32;5.70;;;;;;;17.61;100.00;102194.72;5006708;28;20616;-68
2023/10/01 07:54:22;;;;;;;8.68;5.72;;;;;;;17.51;100.00;102194.47;5000758;28;20033;-68
2023/10/01 07:56:51;;;;;;;11.05;6.78;;;;;;;17.37;100.00;102199.38;5011291;28;20548;-68
2023/10/01 07:59:17;;;;;;;9.70;5.80;;;;;;;17.61;100.00;102192.09;5009207;28;20020;-68
2023/10/01 08:01:45;;;;;;;10.90;6.03;;;;;;;17.70;100.00;102187.03;5007977;28;20030;-69
2023/10/01 08:04:50;;;;;;;11.30;6.22;;;;;;;18.23;100.00;102193.53;5005150;28;20025;-69
2023/10/01 08:07:05;;;;;;;10.05;5.93;;;;;;;18.62;100.00;102192.53;5001744;28;20627;-67
2023/10/01 08:09:32;;;;;;;10.48;6.10;;;;;;;18.80;100.00;102189.38;4986804;28;20026;-69
2023/10/01 08:12:06;;;;;;;9.35;5.75;;;;;;;19.43;100.00;102191.38;4986362;28;20026;-68
2023/10/01 08:14:33;;;;;;;10.88;6.53;;;;;;;19.78;97.89;102191.06;4987771;28;20026;-69
2023/10/01 08:17:05;;;;;;;11.18;6.03;;;;;;;19.92;95.33;102193.88;4990756;28;20044;-68
2023/10/01 08:19:49;;;;;;;11.60;6.30;;;;;;;20.09;92.04;102190.66;4997847;28;20034;-70
2023/10/01 08:22:22;;;;;;;9.32;5.82;;;;;;;20.01;90.05;102197.50;4992407;28;20129;-69
2023/10/01 08:24:49;;;;;;;9.60;6.60;;;;;;;20.31;91.13;102198.81;4992216;28;20083;-70
2023/10/01 08:27:29;;;;;;;12.07;6.70;;;;;;;20.82;92.93;102205.53;4988920;28;20269;-68
2023/10/01 08:30:18;;;;;;;11.05;6.00;;;;;;;20.99;90.48;102213.66;4991102;28;20037;-68
2023/10/01 08:32:49;;;;;;;11.00;7.03;;;;;;;21.00;89.27;102210.13;5000717;28;20061;-71
2023/10/01 08:35:32;;;;;;;11.38;6.25;;;;;;;21.03;89.85;102209.31;4994410;28;20040;-69
2023/10/01 08:37:59;;;;;;;10.20;6.45;;;;;;;21.04;90.17;102213.69;5004352;28;20548;-70
2023/10/01 08:40:27;;;;;;;9.80;6.90;;;;;;;21.11;89.37;102219.03;5003312;28;20449;-71
2023/10/01 08:42:58;;;;;;;10.32;6.30;;;;;;;21.28;91.35;102215.66;5001903;28;20137;-70
2023/10/01 08:45:37;;;;;;;11.02;6.35;;;;;;;21.32;88.33;102217.47;5004756;28;20034;-71
2023/10/01 08:48:04;;;;;;;11.93;6.15;;;;;;;21.50;92.59;102209.72;5004557;28;20022;-71
2023/10/01 08:50:36;;;;;;;11.63;6.78;;;;;;;21.02;86.75;102213.69;4998891;28;20033;-70
2023/10/01 08:53:10;;;;;;;11.73;6.85;;;;;;;21.14;88.02;102217.31;5004587;28;20033;-69
2023/10/01 08:56:04;;;;;;;10.55;7.15;;;;;;;20.91;87.03;102204.75;5004578;28;20133;-70
2023/10/01 08:58:25;;;;;;;11.13;6.97;;;;;;;20.75;91.47;102217.75;4993553;28;20091;-71
2023/10/01 09:00:56;;;;;;;9.90;6.47;;;;;;;20.91;91.35;102213.53;5001992;28;20034;-70
2023/10/01 09:03:28;;;;;;;10.13;7.10;;;;;;;20.97;89.81;102212.75;5003867;28;20029;-70
2023/10/01 09:06:04;;;;;;;10.70;7.05;;;;;;;20.79;90.78;102214.28;5005202;28;20376;-72
2023/10/01 09:08:42;;;;;;;11.70;7.13;;;;;;;20.71;91.03;102219.47;5004579;28;20057;-70
2023/10/01 09:11:13;;;;;;;11.85;7.60;;;;;;;20.67;92.89;102216.78;5003795;28;20095;-71
2023/10/01 09:13:58;;;;;;;13.10;6.60;;;;;;;20.68;94.46;102219.44;5002106;28;20188;-67
2023/10/01 09:16:32;;;;;;;11.23;7.32;;;;;;;20.77;94.81;102218.66;5005190;28;20468;-70
2023/10/01 09:19:29;;;;;;;9.93;6.72;;;;;;;20.84;95.65;102202.06;5026084;28;20021;-71
2023/10/01 09:21:50;;;;;;;10.95;7.88;;;;;;;20.71;94.21;102208.03;5012479;28;20037;-70
2023/10/01 09:24:39;;;;;;;9.93;6.72;;;;;;;20.16;94.84;102194.25;5026904;28;20484;-71
2023/10/01 09:27:09;;;;;;;10.88;6.97;;;;;;;20.29;97.62;102200.56;5022023;28;20026;-67
2023/10/01 09:29:43;;;;;;;12.13;6.80;;;;;;;20.04;97.79;102194.91;5006682;28;20474;-69
2023/10/01 09:32:11;;;;;;;8.85;6.07;;;;;;;19.99;99.47;102186.06;5008125;28;20033;-69
2023/10/01 09:34:46;;;;;;;10.95;6.20;;;;;;;19.99;100.00;102186.06;5009466;28;20030;-69
2023/10/01 09:37:17;;;;;;;11.32;6.70;;;;;;;20.04;100.00;102179.13;5009915;28;20018;-69
2023/10/01 09:39:43;;;;;;;12.75;7.32;;;;;;;19.96;100.00;102183.41;5012143;28;20087;-68
2023/10/01 09:42:22;;;;;;;11.52;7.00;;;;;;;19.97;100.00;102178.16;5011759;28;20049;-69
2023/10/01 09:44:50;;;;;;;12.15;6.80;;;;;;;19.82;100.00;102184.09;5018873;28;20026;-69
2023/10/01 09:47:16;;;;;;;13.32;7.30;;;;;;;19.76;100.00;102178.75;5014807;28;20026;-69
2023/10/01 09:49:47;;;;;;;10.75;6.00;;;;;;;19.72;100.00;102172.56;5008805;28;20252;-69
2023/10/01 09:52:26;;;;;;;10.43;7.28;;;;;;;19.79;100.00;102179.66;5008978;28;20573;-69
2023/10/01 09:54:58;;;;;;;11.18;6.40;;;;;;;19.75;100.00;102183.09;5009264;28;20110;-69
2023/10/01 09:57:24;;;;;;;11.93;7.47;;;;;;;19.86;100.00;102180.63;5008973;28;20308;-67
2023/10/01 10:00:14;;;;;;;12.60;6.75;;;;;;;19.90;100.00;102182.47;5008355;28;20029;-69
2023/10/01 10:02:40;;;;;;;10.82;6.32;;;;;;;19.81;100.00;102179.69;5008897;28;20065;-69
2023/10/01 10:05:06;;;;;;;10.80;6.68;;;;;;;19.84;100.00;102177.09;5009752;28;20553;-69
2023/10/01 10:07:32;;;;;;;11.75;6.80;;;;;;;19.81;100.00;102177.06;5009838;28;20030;-69
2023/10/01 10:09:58;;;;;;;10.63;6.68;;;;;;;19.83;100.00;102175.34;5011163;28;20025;-69
2023/10/01 10:12:33;;;;;;;11.98;7.38;;;;;;;19.87;100.00;102177.16;5010097;28;20367;-69
2023/10/01 10:14:59;;;;;;;10.43;6.68;;;;;;;19.94;100.00;102178.13;5011225;28;20422;-68
2023/10/01 10:17:25;;;;;;;11.57;7.00;;;;;;;19.99;100.00;102181.69;5009875;28;20084;-69
2023/10/01 10:20:25;;;;;;;9.85;6.40;;;;;;;19.99;100.00;102183.44;5010164;28;20104;-68
2023/10/01 10:23:16;;;;;;;9.48;6.43;;;;;;;19.98;100.00;102177.31;5011092;28;20517;-69
2023/10/01 10:25:45;;;;;;;11.00;6.60;;;;;;;20.03;100.00;102172.09;5010108;28;20032;-69
2023/10/01 10:28:21;;;;;;;11.45;6.82;;;;;;;20.19;100.00;102167.97;5009180;28;20384;-69
2023/10/01 10:31:35;;;;;;;12.23;6.80;;;;;;;20.33;100.00;102168.13;5010002;28;20034;-69
2023/10/01 10:34:26;;;;;;;11.88;6.47;;;;;;;20.46;100.00;102170.91;5011759;28;20033;-68
2023/10/01 10:36:58;;;;;;;10.40;6.47;;;;;;;20.54;100.00;102157.84;5009196;28;20026;-69
2023/10/01 10:39:47;;;;;;;10.40;6.63;;;;;;;20.67;100.00;102164.13;5011096;28;20045;-69
2023/10/01 10:42:29;;;;;;;10.20;6.30;;;;;;;20.87;100.00;102166.94;5010812;28;20099;-69
2023/10/01 10:45:19;;;;;;;10.43;6.47;;;;;;;20.80;99.45;102151.94;5009213;28;20030;-69
2023/10/01 10:48:03;;;;;;;12.43;7.03;;;;;;;20.98;100.00;102160.06;5009604;28;20029;-69
2023/10/01 10:50:46;;;;;;;12.85;7.10;;;;;;;21.16;100.00;102157.56;5008663;28;20048;-69
2023/10/01 10:53:21;;;;;;;11.05;6.35;;;;;;;21.22;99.66;102158.53;5009107;28;20061;-69
2023/10/01 10:56:07;;;;;;;11.43;7.43;;;;;;;21.23;99.07;102148.84;5008887;28;20029;-69
2023/10/01 10:59:03;;;;;;;11.35;7.35;;;;;;;21.22;98.20;102152.38;5009099;28;20043;-69
2023/10/01 11:01:43;;;;;;;10.23;6.38;;;;;;;21.25;98.70;102147.13;5009015;28;20076;-69
2023/10/01 11:04:09;;;;;;;13.15;6.78;;;;;;;21.43;99.16;102154.28;5009077;28;20095;-69
2023/10/01 11:06:42;;;;;;;12.73;6.78;;;;;;;21.48;98.29;102151.66;5008561;28;20283;-68
2023/10/01 11:09:24;;;;;;;12.18;7.32;;;;;;;21.65;98.63;102153.53;5009065;28;20029;-69
2023/10/01 11:11:51;;;;;;;10.68;7.32;;;;;;;21.88;100.00;102160.72;5012352;28;20033;-68
2023/10/01 11:14:18;;;;;;;10.43;7.43;;;;;;;22.04;96.98;102153.78;5028141;28;20084;-69
2023/10/01 11:16:48;;;;;;;13.02;7.00;;;;;;;21.88;94.73;102152.81;5027016;28;20033;-69
2023/10/01 11:19:21;;;;;;;12.07;7.17;;;;;;;21.98;93.51;102153.78;5028227;28;20030;-69
2023/10/01 11:22:00;;;;;;;11.10;6.85;;;;;;;21.71;93.18;102140.41;5027421;28;20029;-69
2023/10/01 11:24:36;;;;;;;9.70;6.40;;;;;;;21.83;96.17;102140.50;5027460;28;20083;-69
2023/10/01 11:28:05;;;;;;;10.25;7.05;;;;;;;22.00;93.73;102137.06;5027445;28;20071;-67
2023/10/01 11:30:12;;;;;;;12.32;7.15;;;;;;;22.15;92.84;102124.81;5026400;28;20048;-69
2023/10/01 11:33:02;;;;;;;11.35;6.93;;;;;;;22.25;91.67;102121.31;5027521;28;20076;-69
2023/10/01 11:35:31;;;;;;;11.15;6.75;;;;;;;22.39;93.43;102120.47;5027561;28;20104;-69
2023/10/01 11:38:00;;;;;;;11.45;7.18;;;;;;;22.64;95.20;102128.50;5025412;28;20208;-69
2023/10/01 11:41:06;;;;;;;11.70;7.10;;;;;;;22.65;92.72;102123.19;5026185;28;20053;-70
2023/10/01 11:43:23;;;;;;;10.82;6.78;;;;;;;22.86;92.18;102120.59;5018761;28;20103;-70
2023/10/01 11:46:18;;;;;;;11.52;7.20;;;;;;;23.03;91.75;102118.81;5021129;28;20018;-69
2023/10/01 11:48:56;;;;;;;11.27;6.95;;;;;;;23.20;88.10;102112.66;5021210;28;20029;-69
2023/10/01 11:54:20;;;;;;;12.23;7.88;;;;;;;23.19;85.07;102116.16;5002013;28;20036;-69
2023/10/01 11:57:04;;;;;;;11.10;7.38;;;;;;;23.07;85.70;102118.81;5025625;28;20072;-69